createdAt,value
2024-04-08T00:00:40.364Z,100.00
2024-04-08T00:03:07.522Z,100.00
2024-04-08T00:05:34.951Z,100.00
2024-04-08T00:08:04.724Z,100.00
2024-04-08T00:10:31.496Z,100.00
2024-04-08T00:12:58.137Z,100.00
2024-04-08T00:15:24.972Z,100.00
2024-04-08T00:17:51.739Z,100.00
2024-04-08T00:20:20.606Z,100.00
2024-04-08T00:22:54.242Z,100.00
2024-04-08T00:25:21.112Z,100.00
2024-04-08T00:27:47.763Z,100.00
2024-04-08T00:30:14.380Z,100.00
2024-04-08T00:32:41.279Z,100.00
2024-04-08T00:35:08.725Z,100.00
2024-04-08T00:37:35.584Z,100.00
2024-04-08T00:40:02.972Z,100.00
2024-04-08T00:42:29.782Z,100.00
2024-04-08T00:44:56.475Z,100.00
2024-04-08T00:47:23.129Z,100.00
2024-04-08T00:49:50.388Z,100.00
2024-04-08T00:52:17.307Z,100.00
2024-04-08T00:54:44.073Z,100.00
2024-04-08T00:57:13.092Z,100.00
2024-04-08T00:59:39.839Z,100.00
2024-04-08T01:02:06.771Z,100.00
2024-04-08T01:04:34.445Z,100.00
2024-04-08T01:07:02.667Z,100.00
2024-04-08T01:09:36.860Z,100.00
2024-04-08T01:12:10.774Z,100.00
2024-04-08T01:14:41.866Z,100.00
2024-04-08T01:17:18.500Z,100.00
2024-04-08T01:19:49.439Z,100.00
2024-04-08T01:22:34.396Z,100.00
2024-04-08T01:25:06.590Z,100.00
2024-04-08T01:27:37.261Z,100.00
2024-04-08T01:30:09.145Z,100.00
2024-04-08T01:32:43.844Z,100.00
2024-04-08T01:35:12.580Z,100.00
2024-04-08T01:37:55.103Z,100.00
2024-04-08T01:40:42.038Z,100.00
2024-04-08T01:43:19.864Z,100.00
2024-04-08T01:46:00.176Z,100.00
2024-04-08T01:48:37.155Z,100.00
2024-04-08T01:51:12.372Z,100.00
2024-04-08T01:53:50.614Z,100.00
2024-04-08T01:56:29.869Z,100.00
2024-04-08T01:58:59.067Z,100.00
2024-04-08T02:01:37.360Z,100.00
2024-04-08T02:04:12.423Z,100.00
2024-04-08T02:06:50.627Z,100.00
2024-04-08T02:09:20.684Z,100.00
2024-04-08T02:11:51.922Z,100.00
2024-04-08T02:14:25.383Z,100.00
2024-04-08T02:16:53.373Z,100.00
2024-04-08T02:19:53.049Z,100.00
2024-04-08T02:22:19.718Z,100.00
2024-04-08T02:24:47.288Z,100.00
2024-04-08T02:27:13.946Z,100.00
2024-04-08T02:29:40.862Z,100.00
2024-04-08T02:32:07.676Z,100.00
2024-04-08T02:34:34.365Z,100.00
2024-04-08T02:37:01.209Z,100.00
2024-04-08T02:39:28.072Z,100.00
2024-04-08T02:41:54.774Z,100.00
2024-04-08T02:44:22.022Z,100.00
2024-04-08T02:46:48.612Z,100.00
2024-04-08T02:49:15.228Z,100.00
2024-04-08T02:51:42.074Z,100.00
2024-04-08T02:54:08.912Z,100.00
2024-04-08T02:56:36.453Z,100.00
2024-04-08T02:59:03.154Z,100.00
2024-04-08T03:01:30.978Z,100.00
2024-04-08T03:03:57.691Z,100.00
2024-04-08T03:06:24.487Z,100.00
2024-04-08T03:08:52.066Z,100.00
2024-04-08T03:11:18.844Z,100.00
2024-04-08T03:13:46.733Z,100.00
2024-04-08T03:16:13.441Z,100.00
2024-04-08T03:18:40.218Z,100.00
2024-04-08T03:21:07.000Z,100.00
2024-04-08T03:23:33.808Z,100.00
2024-04-08T03:26:07.569Z,100.00
2024-04-08T03:28:34.355Z,100.00
2024-04-08T03:31:06.289Z,100.00
2024-04-08T03:33:33.931Z,100.00
2024-04-08T03:36:01.503Z,100.00
2024-04-08T03:38:28.193Z,100.00
2024-04-08T03:40:59.921Z,100.00
2024-04-08T03:43:27.102Z,100.00
2024-04-08T03:45:53.940Z,100.00
2024-04-08T03:48:22.638Z,100.00
2024-04-08T03:50:49.378Z,100.00
2024-04-08T03:53:16.926Z,100.00
2024-04-08T03:55:43.715Z,100.00
2024-04-08T03:58:10.945Z,100.00
2024-04-08T04:00:37.632Z,100.00
2024-04-08T04:03:06.283Z,100.00
2024-04-08T04:05:34.185Z,100.00
2024-04-08T04:08:00.782Z,100.00
2024-04-08T04:10:28.022Z,100.00
2024-04-08T04:12:54.854Z,100.00
2024-04-08T04:15:21.595Z,100.00
2024-04-08T04:17:48.451Z,100.00
2024-04-08T04:20:16.263Z,100.00
2024-04-08T04:22:43.133Z,100.00
2024-04-08T04:25:09.923Z,100.00
2024-04-08T04:27:36.721Z,100.00
2024-04-08T04:30:03.992Z,100.00
2024-04-08T04:32:31.044Z,100.00
2024-04-08T04:34:57.872Z,100.00
2024-04-08T04:37:24.948Z,100.00
2024-04-08T04:39:51.639Z,100.00
2024-04-08T04:42:18.291Z,100.00
2024-04-08T04:44:47.000Z,100.00
2024-04-08T04:47:13.914Z,100.00
2024-04-08T04:49:40.708Z,100.00
2024-04-08T04:52:07.517Z,100.00
2024-04-08T04:54:34.494Z,100.00
2024-04-08T04:57:01.338Z,100.00
2024-04-08T04:59:28.165Z,100.00
2024-04-08T05:01:54.924Z,100.00
2024-04-08T05:04:21.863Z,100.00
2024-04-08T05:06:48.588Z,100.00
2024-04-08T05:09:15.214Z,100.00
2024-04-08T05:11:42.534Z,100.00
2024-04-08T05:14:09.260Z,100.00
2024-04-08T05:16:35.871Z,100.00
2024-04-08T05:19:02.564Z,100.00
2024-04-08T05:21:29.652Z,100.00
2024-04-08T05:23:56.368Z,100.00
2024-04-08T05:26:23.119Z,100.00
2024-04-08T05:28:50.385Z,100.00
2024-04-08T05:31:17.335Z,100.00
2024-04-08T05:33:44.385Z,100.00
2024-04-08T05:36:11.389Z,100.00
2024-04-08T05:38:38.296Z,100.00
2024-04-08T05:41:05.012Z,100.00
2024-04-08T05:43:34.425Z,100.00
2024-04-08T05:46:01.416Z,100.00
2024-04-08T05:48:28.444Z,100.00
2024-04-08T05:50:55.233Z,100.00
2024-04-08T05:53:22.124Z,100.00
2024-04-08T05:55:48.885Z,100.00
2024-04-08T05:58:16.957Z,100.00
2024-04-08T06:00:43.916Z,100.00
2024-04-08T06:03:12.064Z,100.00
2024-04-08T06:05:41.312Z,100.00
2024-04-08T06:08:08.250Z,100.00
2024-04-08T06:10:42.652Z,100.00
2024-04-08T06:13:10.268Z,100.00
2024-04-08T06:15:37.184Z,100.00
2024-04-08T06:18:04.121Z,100.00
2024-04-08T06:20:31.463Z,100.00
2024-04-08T06:23:01.077Z,100.00
2024-04-08T06:25:30.944Z,100.00
2024-04-08T06:27:59.022Z,100.00
2024-04-08T06:30:25.914Z,100.00
2024-04-08T06:32:54.865Z,100.00
2024-04-08T06:35:23.045Z,100.00
2024-04-08T06:38:14.392Z,100.00
2024-04-08T06:40:41.758Z,100.00
2024-04-08T06:43:08.577Z,100.00
2024-04-08T06:45:35.730Z,100.00
2024-04-08T06:48:02.979Z,100.00
2024-04-08T06:50:30.148Z,100.00
2024-04-08T06:52:56.889Z,100.00
2024-04-08T06:55:25.301Z,100.00
2024-04-08T06:57:52.071Z,99.73
2024-04-08T07:00:20.118Z,98.28
2024-04-08T07:02:47.043Z,96.40
2024-04-08T07:05:14.206Z,95.05
2024-04-08T07:07:41.118Z,93.97
2024-04-08T07:10:07.844Z,92.42
2024-04-08T07:12:35.035Z,90.18
2024-04-08T07:15:03.118Z,88.42
2024-04-08T07:17:30.633Z,86.69
2024-04-08T07:19:58.005Z,85.21
2024-04-08T07:22:24.765Z,84.10
2024-04-08T07:24:51.527Z,82.23
2024-04-08T07:27:18.518Z,79.94
2024-04-08T07:29:45.489Z,77.75
2024-04-08T07:32:12.245Z,77.07
2024-04-08T07:34:38.941Z,76.57
2024-04-08T07:37:06.087Z,75.32
2024-04-08T07:39:37.220Z,73.08
2024-04-08T07:42:06.155Z,72.04
2024-04-08T07:44:35.726Z,70.88
2024-04-08T07:47:36.688Z,70.66
2024-04-08T07:50:05.981Z,69.82
2024-04-08T07:52:37.687Z,69.25
2024-04-08T07:55:05.490Z,68.14
2024-04-08T07:57:33.271Z,67.13
2024-04-08T08:00:00.372Z,66.16
2024-04-08T08:02:28.746Z,65.62
2024-04-08T08:04:55.643Z,65.07
2024-04-08T08:07:22.351Z,63.35
2024-04-08T08:09:49.687Z,62.00
2024-04-08T08:12:17.917Z,61.64
2024-04-08T08:14:46.921Z,60.21
2024-04-08T08:17:14.520Z,59.28
2024-04-08T08:19:41.259Z,58.34
2024-04-08T08:22:07.984Z,57.08
2024-04-08T08:24:35.957Z,55.87
2024-04-08T08:27:03.021Z,54.12
2024-04-08T08:29:30.527Z,54.60
2024-04-08T08:32:00.350Z,55.15
2024-04-08T08:34:28.429Z,54.24
2024-04-08T08:36:55.154Z,54.10
2024-04-08T08:39:21.941Z,53.93
2024-04-08T08:41:51.968Z,52.99
2024-04-08T08:44:21.414Z,51.68
2024-04-08T08:46:48.762Z,49.79
2024-04-08T08:49:16.321Z,49.77
2024-04-08T08:51:43.133Z,49.58
2024-04-08T08:54:10.507Z,48.78
2024-04-08T08:56:37.526Z,48.83
2024-04-08T08:59:04.382Z,48.72
2024-04-08T09:01:31.408Z,47.86
2024-04-08T09:03:59.004Z,47.56
2024-04-08T09:06:26.905Z,46.57
2024-04-08T09:08:53.719Z,46.46
2024-04-08T09:11:20.567Z,45.68
2024-04-08T09:13:49.862Z,45.05
2024-04-08T09:16:23.139Z,44.86
2024-04-08T09:18:50.814Z,44.95
2024-04-08T09:21:17.743Z,43.21
2024-04-08T09:23:47.049Z,43.55
2024-04-08T09:26:13.810Z,42.79
2024-04-08T09:28:40.643Z,42.22
2024-04-08T09:31:07.927Z,41.34
2024-04-08T09:33:34.804Z,42.04
2024-04-08T09:36:01.639Z,41.83
2024-04-08T09:38:28.693Z,40.16
2024-04-08T09:40:55.398Z,39.44
2024-04-08T09:43:22.119Z,39.07
2024-04-08T09:45:48.826Z,38.72
2024-04-08T09:48:15.984Z,38.23
2024-04-08T09:50:43.359Z,38.47
2024-04-08T09:53:10.652Z,38.18
2024-04-08T09:55:42.576Z,36.52
2024-04-08T09:58:11.716Z,36.27
2024-04-08T10:00:38.438Z,35.75
2024-04-08T10:03:09.611Z,35.05
2024-04-08T10:05:36.692Z,34.86
2024-04-08T10:08:06.380Z,35.52
2024-04-08T10:10:33.878Z,36.27
2024-04-08T10:13:01.176Z,35.51
2024-04-08T10:15:31.839Z,35.14
2024-04-08T10:17:58.614Z,34.66
2024-04-08T10:20:26.662Z,34.34
2024-04-08T10:22:53.556Z,33.91
2024-04-08T10:25:39.064Z,33.17
2024-04-08T10:28:12.507Z,33.16
2024-04-08T10:30:40.009Z,33.73
2024-04-08T10:33:07.338Z,33.82
2024-04-08T10:35:34.246Z,33.24
2024-04-08T10:38:01.233Z,33.41
2024-04-08T10:40:28.067Z,32.15
2024-04-08T10:42:56.719Z,32.76
2024-04-08T10:45:23.721Z,32.74
2024-04-08T10:48:02.974Z,32.32
2024-04-08T10:50:34.869Z,32.98
2024-04-08T10:53:02.345Z,32.64
2024-04-08T10:55:29.523Z,32.59
2024-04-08T10:57:56.439Z,32.20
2024-04-08T11:00:23.484Z,31.91
2024-04-08T11:02:51.070Z,31.66
2024-04-08T11:05:18.411Z,32.00
2024-04-08T11:07:45.371Z,32.05
2024-04-08T11:10:13.762Z,31.58
2024-04-08T11:12:40.639Z,31.74
2024-04-08T11:15:09.770Z,31.38
2024-04-08T11:17:36.883Z,31.43
2024-04-08T11:20:07.501Z,30.78
2024-04-08T11:22:35.206Z,30.84
2024-04-08T11:25:03.698Z,30.91
2024-04-08T11:27:31.018Z,31.12
2024-04-08T11:29:58.050Z,29.98
2024-04-08T11:32:25.283Z,30.08
2024-04-08T11:34:52.277Z,30.66
2024-04-08T11:37:19.034Z,30.84
2024-04-08T11:39:46.062Z,30.79
2024-04-08T11:42:13.525Z,30.69
2024-04-08T11:44:44.373Z,30.76
2024-04-08T11:47:18.524Z,30.73
2024-04-08T11:49:46.006Z,30.86
2024-04-08T11:52:13.357Z,31.03
2024-04-08T11:54:53.186Z,30.74
2024-04-08T11:57:27.113Z,30.77
2024-04-08T11:59:53.999Z,30.15
2024-04-08T12:02:23.804Z,30.25
2024-04-08T12:04:52.838Z,30.55
2024-04-08T12:07:19.693Z,30.58
2024-04-08T12:09:46.579Z,31.06
2024-04-08T12:12:18.154Z,29.85
2024-04-08T12:14:46.515Z,29.77
2024-04-08T12:17:13.724Z,30.09
2024-04-08T12:19:42.368Z,29.71
2024-04-08T12:22:10.635Z,29.90
2024-04-08T12:24:38.086Z,29.68
2024-04-08T12:27:05.218Z,29.57
2024-04-08T12:29:32.366Z,29.13
2024-04-08T12:31:59.204Z,29.18
2024-04-08T12:34:26.699Z,29.31
2024-04-08T12:36:53.397Z,29.20
2024-04-08T12:39:20.204Z,28.97
2024-04-08T12:41:47.369Z,29.31
2024-04-08T12:44:14.277Z,29.37
2024-04-08T12:46:41.123Z,30.19
2024-04-08T12:49:08.094Z,30.78
2024-04-08T12:51:34.935Z,30.62
2024-04-08T12:54:02.009Z,30.86
2024-04-08T12:56:29.027Z,30.29
2024-04-08T12:58:59.229Z,29.60
2024-04-08T13:01:26.350Z,29.40
2024-04-08T13:03:53.895Z,29.54
2024-04-08T13:06:20.820Z,29.67
2024-04-08T13:08:48.319Z,29.84
2024-04-08T13:11:16.253Z,30.05
2024-04-08T13:13:45.137Z,30.69
2024-04-08T13:16:14.059Z,30.35
2024-04-08T13:18:42.681Z,30.24
2024-04-08T13:21:10.678Z,30.25
2024-04-08T13:23:38.438Z,29.75
2024-04-08T13:26:09.797Z,29.26
2024-04-08T13:28:37.098Z,29.44
2024-04-08T13:31:05.135Z,29.22
2024-04-08T13:33:32.274Z,29.02
2024-04-08T13:35:59.245Z,28.81
2024-04-08T13:38:26.324Z,28.71
2024-04-08T13:40:53.207Z,28.36
2024-04-08T13:43:20.171Z,28.46
2024-04-08T13:45:46.866Z,28.77
2024-04-08T13:48:13.787Z,28.78
2024-04-08T13:50:40.637Z,28.38
2024-04-08T13:53:08.438Z,28.56
2024-04-08T13:55:38.205Z,28.64
2024-04-08T13:58:06.462Z,28.67
2024-04-08T14:00:33.699Z,28.65
2024-04-08T14:03:00.901Z,28.57
2024-04-08T14:05:27.886Z,28.78
2024-04-08T14:07:54.729Z,28.75
2024-04-08T14:10:21.613Z,28.67
2024-04-08T14:12:48.531Z,28.60
2024-04-08T14:15:16.677Z,28.83
2024-04-08T14:17:43.439Z,28.88
2024-04-08T14:20:10.514Z,29.20
2024-04-08T14:22:39.197Z,29.69
2024-04-08T14:25:06.812Z,29.83
2024-04-08T14:27:34.525Z,29.89
2024-04-08T14:30:01.892Z,29.95
2024-04-08T14:32:29.412Z,29.66
2024-04-08T14:34:56.269Z,29.62
2024-04-08T14:37:35.943Z,29.80
2024-04-08T14:40:10.470Z,29.64
2024-04-08T14:42:37.991Z,29.21
2024-04-08T14:45:05.847Z,29.43
2024-04-08T14:47:34.178Z,29.60
2024-04-08T14:50:01.123Z,29.86
2024-04-08T14:52:36.302Z,29.93
2024-04-08T14:55:07.074Z,29.91
2024-04-08T14:57:36.393Z,29.76
2024-04-08T15:00:07.854Z,29.62
2024-04-08T15:02:34.890Z,29.24
2024-04-08T15:05:01.990Z,29.00
2024-04-08T15:07:31.644Z,28.77
2024-04-08T15:09:58.762Z,28.63
2024-04-08T15:12:30.192Z,28.69
2024-04-08T15:18:16.907Z,29.46
2024-04-08T15:20:45.575Z,29.86
2024-04-08T15:23:12.345Z,29.89
2024-04-08T15:25:40.043Z,29.82
2024-04-08T15:28:10.392Z,30.15
2024-04-08T15:30:37.268Z,30.04
2024-04-08T15:33:04.943Z,29.85
2024-04-08T15:35:32.027Z,30.11
2024-04-08T15:38:00.611Z,30.00
2024-04-08T15:40:27.328Z,30.44
2024-04-08T15:42:54.213Z,30.26
2024-04-08T15:45:20.974Z,30.18
2024-04-08T15:47:47.883Z,30.56
2024-04-08T15:50:15.594Z,30.43
2024-04-08T15:52:42.352Z,30.61
2024-04-08T15:55:09.387Z,30.88
2024-04-08T15:57:36.136Z,31.29
2024-04-08T16:00:06.429Z,31.77
2024-04-08T16:02:34.139Z,32.29
2024-04-08T16:05:02.018Z,32.61
2024-04-08T16:07:29.119Z,33.04
2024-04-08T16:09:57.665Z,33.14
2024-04-08T16:12:25.741Z,33.19
2024-04-08T16:14:52.960Z,33.49
2024-04-08T16:17:19.728Z,33.88
2024-04-08T16:19:50.619Z,34.08
2024-04-08T16:22:21.187Z,34.45
2024-04-08T16:24:51.632Z,34.80
2024-04-08T16:27:18.401Z,34.87
2024-04-08T16:29:48.677Z,35.32
2024-04-08T16:32:15.574Z,35.58
2024-04-08T16:34:43.953Z,35.89
2024-04-08T16:37:10.746Z,36.08
2024-04-08T16:39:37.589Z,36.39
2024-04-08T16:42:04.772Z,36.62
2024-04-08T16:44:33.307Z,36.76
2024-04-08T16:47:00.169Z,37.11
2024-04-08T16:49:29.089Z,37.37
2024-04-08T16:51:58.551Z,37.58
2024-04-08T16:54:26.890Z,37.85
2024-04-08T16:56:54.133Z,38.10
2024-04-08T16:59:21.334Z,38.21
2024-04-08T17:01:48.067Z,38.42
2024-04-08T17:04:15.066Z,38.80
2024-04-08T17:06:47.085Z,39.10
2024-04-08T17:09:13.962Z,39.33
2024-04-08T17:11:40.824Z,39.60
2024-04-08T17:14:07.780Z,39.87
2024-04-08T17:16:34.839Z,39.87
2024-04-08T17:19:04.046Z,40.06
2024-04-08T17:21:31.230Z,40.28
2024-04-08T17:23:58.188Z,40.78
2024-04-08T17:26:24.895Z,41.09
2024-04-08T17:28:51.767Z,41.44
2024-04-08T17:31:19.042Z,41.47
2024-04-08T17:33:46.014Z,41.81
2024-04-08T17:36:19.433Z,41.92
2024-04-08T17:38:46.691Z,42.34
2024-04-08T17:41:16.136Z,42.90
2024-04-08T17:43:43.127Z,43.53
2024-04-08T17:46:10.414Z,44.43
2024-04-08T17:48:37.966Z,45.27
2024-04-08T17:51:06.991Z,46.19
2024-04-08T17:53:37.544Z,47.29
2024-04-08T17:56:05.683Z,47.78
2024-04-08T17:58:33.768Z,48.25
2024-04-08T18:01:07.306Z,48.88
2024-04-08T18:03:36.192Z,49.26
2024-04-08T18:06:18.184Z,49.93
2024-04-08T18:08:46.062Z,50.15
2024-04-08T18:11:13.296Z,50.49
2024-04-08T18:13:41.107Z,50.97
2024-04-08T18:16:18.688Z,51.47
2024-04-08T18:18:49.097Z,52.06
2024-04-08T18:21:16.074Z,52.81
2024-04-08T18:23:43.634Z,53.43
2024-04-08T18:26:18.022Z,54.67
2024-04-08T18:28:48.369Z,55.80
2024-04-08T18:31:19.004Z,56.97
2024-04-08T18:33:46.677Z,58.07
2024-04-08T18:36:14.723Z,58.95
2024-04-08T18:38:41.791Z,59.34
2024-04-08T18:41:09.893Z,59.77
2024-04-08T18:43:38.776Z,60.34
2024-04-08T18:46:08.933Z,61.29
2024-04-08T18:48:39.004Z,62.16
2024-04-08T18:51:09.630Z,62.97
2024-04-08T18:53:36.643Z,63.55
2024-04-08T18:56:03.621Z,64.06
2024-04-08T18:58:30.860Z,64.72
2024-04-08T19:01:01.493Z,65.54
2024-04-08T19:03:31.145Z,66.53
2024-04-08T19:05:57.957Z,67.07
2024-04-08T19:08:24.689Z,67.28
2024-04-08T19:10:51.474Z,67.60
2024-04-08T19:13:18.454Z,67.94
2024-04-08T19:15:47.952Z,68.24
2024-04-08T19:18:14.878Z,68.74
2024-04-08T19:20:41.966Z,69.19
2024-04-08T19:23:09.164Z,69.61
2024-04-08T19:25:37.723Z,70.22
2024-04-08T19:28:05.292Z,71.18
2024-04-08T19:30:32.231Z,71.92
2024-04-08T19:33:01.194Z,72.38
2024-04-08T19:35:28.337Z,73.06
2024-04-08T19:37:55.959Z,73.73
2024-04-08T19:40:22.689Z,73.97
2024-04-08T19:42:51.387Z,74.10
2024-04-08T19:45:24.928Z,74.22
2024-04-08T19:48:00.117Z,74.30
2024-04-08T19:50:28.104Z,74.54
2024-04-08T19:52:55.314Z,74.83
2024-04-08T19:55:23.918Z,75.12
2024-04-08T19:57:51.949Z,75.55
2024-04-08T20:00:21.792Z,75.97
2024-04-08T20:02:48.647Z,76.28
2024-04-08T20:05:17.965Z,76.51
2024-04-08T20:07:47.095Z,76.81
2024-04-08T20:10:13.843Z,77.01
2024-04-08T20:12:40.709Z,77.38
2024-04-08T20:15:07.872Z,77.91
2024-04-08T20:17:35.096Z,78.32
2024-04-08T20:20:03.126Z,78.88
2024-04-08T20:22:30.302Z,79.43
2024-04-08T20:24:57.769Z,80.05
2024-04-08T20:27:24.655Z,80.59
2024-04-08T20:29:51.871Z,81.25
2024-04-08T20:32:18.768Z,82.10
2024-04-08T20:34:46.895Z,82.78
2024-04-08T20:37:14.190Z,83.78
2024-04-08T20:39:41.213Z,84.51
2024-04-08T20:42:08.687Z,84.91
2024-04-08T20:44:35.603Z,85.32
2024-04-08T20:47:03.051Z,85.98
2024-04-08T20:49:34.303Z,86.59
2024-04-08T20:52:01.527Z,87.24
2024-04-08T20:54:28.704Z,88.01
2024-04-08T20:56:55.488Z,88.75
2024-04-08T20:59:22.695Z,89.42
2024-04-08T21:01:49.555Z,90.07
2024-04-08T21:04:17.061Z,90.51
2024-04-08T21:06:43.909Z,91.30
2024-04-08T21:09:11.329Z,92.02
2024-04-08T21:11:38.240Z,92.65
2024-04-08T21:14:04.922Z,93.32
2024-04-08T21:16:31.906Z,94.11
2024-04-08T21:18:58.573Z,94.78
2024-04-08T21:21:25.317Z,95.31
2024-04-08T21:23:52.229Z,95.75
2024-04-08T21:26:20.017Z,96.14
2024-04-08T21:28:48.152Z,96.26
2024-04-08T21:31:15.300Z,96.50
2024-04-08T21:33:45.224Z,96.67
2024-04-08T21:36:12.065Z,96.94
2024-04-08T21:38:39.528Z,97.04
2024-04-08T21:41:10.322Z,97.20
2024-04-08T21:43:40.593Z,97.52
2024-04-08T21:46:07.905Z,97.79
2024-04-08T21:48:34.902Z,97.92
2024-04-08T21:51:06.384Z,98.16
2024-04-08T21:53:33.247Z,98.29
2024-04-08T21:56:02.557Z,98.22
2024-04-08T21:58:30.258Z,98.08
2024-04-08T22:00:57.313Z,98.44
2024-04-08T22:03:28.613Z,98.97
2024-04-08T22:05:55.814Z,99.34
2024-04-08T22:08:22.947Z,99.87
2024-04-08T22:10:50.215Z,100.00
2024-04-08T22:13:17.318Z,100.00
2024-04-08T22:15:44.119Z,100.00
2024-04-08T22:18:11.161Z,100.00
2024-04-08T22:20:39.172Z,100.00
2024-04-08T22:23:06.747Z,100.00
2024-04-08T22:25:34.267Z,100.00
2024-04-08T22:28:01.117Z,100.00
2024-04-08T22:30:27.890Z,100.00
2024-04-08T22:32:54.958Z,100.00
2024-04-08T22:35:22.047Z,100.00
2024-04-08T22:37:49.283Z,100.00
2024-04-08T22:40:16.347Z,100.00
2024-04-08T22:42:43.027Z,100.00
2024-04-08T22:45:09.654Z,100.00
2024-04-08T22:47:36.520Z,100.00
2024-04-08T22:50:03.666Z,100.00
2024-04-08T22:52:31.288Z,100.00
2024-04-08T22:54:57.993Z,100.00
2024-04-08T22:57:24.797Z,100.00
2024-04-08T22:59:51.491Z,100.00
2024-04-08T23:02:18.243Z,100.00
2024-04-08T23:04:45.283Z,100.00
2024-04-08T23:07:12.195Z,100.00
2024-04-08T23:09:39.422Z,100.00
2024-04-08T23:12:06.540Z,100.00
2024-04-08T23:14:33.592Z,100.00
2024-04-08T23:17:00.360Z,100.00
2024-04-08T23:19:27.247Z,100.00
2024-04-08T23:21:54.091Z,100.00
2024-04-08T23:24:20.750Z,100.00
2024-04-08T23:26:47.403Z,100.00
2024-04-08T23:29:14.151Z,100.00
2024-04-08T23:31:41.675Z,100.00
2024-04-08T23:34:08.857Z,100.00
2024-04-08T23:36:36.073Z,100.00
2024-04-08T23:39:03.172Z,100.00
2024-04-08T23:41:30.571Z,100.00
2024-04-08T23:43:57.381Z,100.00
2024-04-08T23:46:24.396Z,100.00
2024-04-08T23:48:51.316Z,100.00
2024-04-08T23:51:18.027Z,100.00
2024-04-08T23:53:46.560Z,100.00
2024-04-08T23:56:13.338Z,100.00
2024-04-08T23:58:40.229Z,100.00
